createdAt,value
2023-01-26T00:01:48.232Z,28.87
2023-01-26T00:06:52.215Z,32.93
2023-01-26T00:11:55.520Z,34.77
2023-01-26T00:17:02.237Z,31.70
2023-01-26T00:22:09.300Z,35.37
2023-01-26T00:27:13.138Z,30.63
2023-01-26T00:32:14.983Z,39.10
2023-01-26T00:37:18.919Z,37.73
2023-01-26T00:42:21.797Z,41.57
2023-01-26T00:47:23.754Z,33.00
2023-01-26T00:52:30.760Z,36.63
2023-01-26T00:57:35.010Z,37.95
2023-01-26T01:02:37.925Z,35.27
2023-01-26T01:07:42.276Z,36.27
2023-01-26T01:12:44.009Z,34.80
2023-01-26T01:17:48.296Z,34.50
2023-01-26T01:22:51.478Z,32.07
2023-01-26T01:27:57.323Z,31.80
2023-01-26T01:33:06.970Z,31.20
2023-01-26T01:38:13.513Z,30.27
2023-01-26T01:43:19.090Z,30.23
2023-01-26T01:48:35.722Z,29.57
2023-01-26T01:53:41.749Z,27.30
2023-01-26T01:58:43.714Z,18.97
2023-01-26T02:03:51.633Z,26.43
2023-01-26T02:08:54.931Z,26.00
2023-01-26T02:14:00.219Z,24.80
2023-01-26T02:19:04.873Z,24.27
2023-01-26T02:24:12.399Z,24.73
2023-01-26T02:29:17.028Z,27.53
2023-01-26T02:34:21.752Z,26.13
2023-01-26T02:39:47.341Z,27.43
2023-01-26T02:44:53.101Z,26.43
2023-01-26T02:49:55.050Z,26.20
2023-01-26T02:55:18.351Z,25.27
2023-01-26T03:00:27.608Z,26.90
2023-01-26T03:05:30.384Z,23.77
2023-01-26T03:10:34.491Z,23.77
2023-01-26T03:15:43.598Z,23.47
2023-01-26T03:21:10.783Z,24.43
2023-01-26T03:26:33.735Z,21.47
2023-01-26T03:31:35.669Z,24.33
2023-01-26T03:36:38.687Z,25.03
2023-01-26T03:42:04.035Z,24.23
2023-01-26T03:47:27.438Z,22.73
2023-01-26T03:52:52.263Z,23.83
2023-01-26T03:57:58.273Z,22.87
2023-01-26T04:03:18.510Z,25.33
2023-01-26T04:08:29.564Z,24.70
2023-01-26T04:13:58.574Z,24.43
2023-01-26T04:19:23.697Z,23.57
2023-01-26T04:24:26.949Z,23.33
2023-01-26T04:29:34.891Z,22.20
2023-01-26T04:34:39.183Z,23.90
2023-01-26T04:39:49.043Z,26.30
2023-01-26T04:44:52.637Z,26.43
2023-01-26T04:49:59.447Z,28.07
2023-01-26T04:55:04.341Z,25.83
2023-01-26T05:00:10.651Z,26.33
2023-01-26T05:05:12.933Z,27.53
2023-01-26T05:10:15.956Z,25.10
2023-01-26T05:15:42.352Z,28.60
2023-01-26T05:20:54.997Z,29.03
2023-01-26T05:26:07.458Z,26.23
2023-01-26T05:31:36.642Z,28.07
2023-01-26T05:36:38.618Z,32.93
2023-01-26T05:41:40.762Z,30.23
2023-01-26T05:47:03.157Z,31.87
2023-01-26T05:52:12.275Z,25.93
2023-01-26T05:57:19.408Z,30.50
2023-01-26T06:02:45.890Z,33.13
2023-01-26T06:07:51.446Z,32.57
2023-01-26T06:13:00.220Z,36.80
2023-01-26T06:18:25.695Z,31.47
2023-01-26T06:23:29.936Z,30.63
2023-01-26T06:28:36.135Z,29.87
2023-01-26T06:33:40.821Z,27.90
2023-01-26T06:38:48.184Z,27.63
2023-01-26T06:43:55.038Z,33.53
2023-01-26T06:49:01.575Z,25.90
2023-01-26T06:54:05.907Z,24.73
2023-01-26T06:59:14.620Z,25.00
2023-01-26T07:04:39.212Z,29.57
2023-01-26T07:09:40.946Z,28.03
2023-01-26T07:14:47.530Z,20.77
2023-01-26T07:19:53.841Z,17.90
2023-01-26T07:24:58.903Z,14.70
2023-01-26T07:30:00.774Z,24.20
2023-01-26T07:35:03.606Z,8.63
2023-01-26T07:40:09.960Z,7.47
2023-01-26T07:45:12.090Z,6.63
2023-01-26T07:50:14.270Z,8.13
2023-01-26T07:55:20.103Z,8.97
2023-01-26T08:00:24.098Z,6.10
2023-01-26T08:05:35.487Z,7.80
2023-01-26T08:10:37.489Z,8.47
2023-01-26T08:15:42.084Z,7.30
2023-01-26T08:20:55.833Z,7.63
2023-01-26T08:26:02.342Z,7.73
2023-01-26T08:31:09.089Z,7.70
2023-01-26T08:36:14.883Z,7.33
2023-01-26T08:41:18.817Z,7.03
2023-01-26T08:46:22.750Z,8.50
2023-01-26T08:51:29.283Z,7.67
2023-01-26T08:56:31.300Z,7.03
2023-01-26T09:01:33.216Z,8.70
2023-01-26T09:06:36.099Z,8.00
2023-01-26T09:11:42.034Z,8.27
2023-01-26T09:16:48.997Z,8.23
2023-01-26T09:21:54.277Z,9.20
2023-01-26T09:26:58.380Z,7.93
2023-01-26T09:32:02.360Z,8.47
2023-01-26T09:37:10.352Z,7.93
2023-01-26T09:42:50.757Z,7.73
2023-01-26T09:47:58.694Z,8.77
2023-01-26T09:53:06.785Z,7.23
2023-01-26T09:58:22.948Z,6.60
2023-01-26T10:03:36.726Z,6.90
2023-01-26T10:08:38.758Z,7.17
2023-01-26T10:13:44.881Z,6.30
2023-01-26T10:19:13.287Z,6.63
2023-01-26T10:24:20.572Z,6.00
2023-01-26T10:29:24.653Z,5.83
2023-01-26T10:34:29.460Z,5.60
2023-01-26T10:39:31.415Z,5.83
2023-01-26T10:44:38.620Z,4.70
2023-01-26T10:49:40.617Z,4.27
2023-01-26T10:54:44.896Z,5.70
2023-01-26T11:00:00.836Z,5.10
2023-01-26T11:05:11.399Z,4.17
2023-01-26T11:10:23.387Z,4.63
2023-01-26T11:15:29.651Z,3.37
2023-01-26T11:20:48.362Z,4.20
2023-01-26T11:26:02.170Z,4.03
2023-01-26T11:31:39.398Z,3.53
2023-01-26T11:37:06.245Z,4.20
2023-01-26T11:42:18.484Z,4.97
2023-01-26T11:47:26.637Z,4.83
2023-01-26T11:53:03.427Z,4.13
2023-01-26T11:58:16.231Z,3.50
2023-01-26T12:03:39.413Z,4.27
2023-01-26T12:08:53.337Z,3.30
2023-01-26T12:14:30.475Z,3.90
2023-01-26T12:19:46.700Z,3.17
2023-01-26T12:25:20.870Z,3.30
2023-01-26T12:30:26.468Z,3.87
2023-01-26T12:35:51.353Z,2.70
2023-01-26T12:41:34.755Z,3.53
2023-01-26T12:46:41.091Z,3.20
2023-01-26T12:51:51.286Z,3.30
2023-01-26T12:56:55.968Z,2.67
2023-01-26T13:02:32.543Z,2.27
2023-01-26T13:07:36.846Z,2.93
2023-01-26T13:12:59.299Z,2.83
2023-01-26T13:18:01.704Z,2.70
2023-01-26T13:23:28.988Z,2.70
2023-01-26T13:28:33.159Z,2.43
2023-01-26T13:33:37.901Z,2.73
2023-01-26T13:38:45.522Z,2.87
2023-01-26T13:44:09.091Z,3.20
2023-01-26T13:49:37.067Z,3.50
2023-01-26T13:54:46.869Z,3.37
2023-01-26T13:59:52.332Z,2.00
2023-01-26T14:04:55.629Z,2.70
2023-01-26T14:10:01.469Z,2.77
2023-01-26T14:15:07.607Z,3.00
2023-01-26T14:20:33.514Z,2.60
2023-01-26T14:25:35.339Z,2.73
2023-01-26T14:30:37.154Z,2.53
2023-01-26T14:35:46.513Z,2.17
2023-01-26T14:40:53.807Z,2.40
2023-01-26T14:46:05.881Z,2.00
2023-01-26T14:51:16.142Z,2.30
2023-01-26T14:56:28.058Z,2.17
2023-01-26T15:01:33.396Z,2.90
2023-01-26T15:06:37.350Z,2.63
2023-01-26T15:12:03.792Z,2.83
2023-01-26T15:17:09.948Z,2.17
2023-01-26T15:22:22.768Z,2.90
2023-01-26T15:27:36.572Z,3.40
2023-01-26T15:32:39.776Z,3.17
2023-01-26T15:37:41.448Z,3.03
2023-01-26T15:42:45.531Z,2.33
2023-01-26T15:47:47.253Z,2.60
2023-01-26T15:52:52.538Z,3.33
2023-01-26T15:57:54.916Z,3.25
2023-01-26T16:03:03.891Z,3.50
2023-01-26T16:08:12.066Z,3.20
2023-01-26T16:13:17.853Z,3.63
2023-01-26T16:18:22.088Z,3.00
2023-01-26T16:23:26.408Z,3.97
2023-01-26T16:28:30.719Z,3.30
2023-01-26T16:33:35.472Z,4.20
2023-01-26T16:38:39.721Z,5.07
2023-01-26T16:43:47.008Z,4.67
2023-01-26T16:48:52.823Z,4.73
2023-01-26T16:53:55.614Z,5.17
2023-01-26T16:58:57.434Z,5.23
2023-01-26T17:04:03.238Z,4.73
2023-01-26T17:09:08.896Z,4.93
2023-01-26T17:14:11.805Z,4.67
2023-01-26T17:19:16.909Z,4.87
2023-01-26T17:24:25.386Z,5.33
2023-01-26T17:29:27.115Z,5.03
2023-01-26T17:34:33.907Z,6.33
2023-01-26T17:39:37.666Z,5.70
2023-01-26T17:44:42.654Z,5.63
2023-01-26T17:49:44.350Z,4.53
2023-01-26T17:54:46.142Z,5.33
2023-01-26T17:59:52.830Z,5.63
2023-01-26T18:04:59.109Z,5.70
2023-01-26T18:10:01.147Z,5.27
2023-01-26T18:15:06.286Z,6.10
2023-01-26T18:20:08.847Z,6.13
2023-01-26T18:25:14.525Z,5.80
2023-01-26T18:30:19.069Z,5.30
2023-01-26T18:35:27.103Z,7.00
2023-01-26T18:40:35.902Z,5.50
2023-01-26T18:45:41.069Z,6.80
2023-01-26T18:50:48.778Z,6.70
2023-01-26T18:56:01.313Z,6.53
2023-01-26T19:01:09.799Z,7.03
2023-01-26T19:06:20.148Z,6.63
2023-01-26T19:11:22.105Z,7.90
2023-01-26T19:16:26.555Z,7.67
2023-01-26T19:21:33.733Z,9.50
2023-01-26T19:26:36.515Z,10.33
2023-01-26T19:31:41.447Z,10.27
2023-01-26T19:36:47.033Z,10.83
2023-01-26T19:41:50.251Z,11.53
2023-01-26T19:46:55.819Z,15.80
2023-01-26T19:52:02.291Z,14.80
2023-01-26T19:57:09.429Z,18.60
2023-01-26T20:02:14.239Z,16.67
2023-01-26T20:07:16.104Z,17.87
2023-01-26T20:12:20.521Z,18.73
2023-01-26T20:17:24.860Z,15.93
2023-01-26T20:22:33.354Z,16.57
2023-01-26T20:27:35.077Z,14.53
2023-01-26T20:32:37.026Z,15.07
2023-01-26T20:37:43.671Z,16.00
2023-01-26T20:42:48.111Z,14.67
2023-01-26T20:47:49.802Z,14.77
2023-01-26T20:52:54.950Z,13.23
2023-01-26T20:57:58.988Z,12.07
2023-01-26T21:03:03.266Z,10.47
2023-01-26T21:08:05.340Z,9.80
2023-01-26T21:13:09.473Z,10.70
2023-01-26T21:18:13.470Z,9.70
2023-01-26T21:23:18.265Z,8.63
2023-01-26T21:28:19.949Z,8.43
2023-01-26T21:33:21.731Z,8.67
2023-01-26T21:38:23.893Z,7.97
2023-01-26T21:43:28.117Z,7.67
2023-01-26T21:48:35.556Z,7.20
2023-01-26T21:53:37.231Z,7.37
2023-01-26T21:59:02.466Z,6.70
2023-01-26T22:04:09.616Z,6.80
2023-01-26T22:09:14.439Z,5.73
2023-01-26T22:14:24.977Z,6.63
2023-01-26T22:19:29.005Z,4.87
2023-01-26T22:24:35.471Z,4.23
2023-01-26T22:29:37.369Z,3.87
2023-01-26T22:34:39.006Z,2.90
2023-01-26T22:39:43.207Z,2.90
2023-01-26T22:44:49.392Z,2.87
2023-01-26T22:49:59.175Z,3.00
2023-01-26T22:55:00.902Z,3.40
2023-01-26T23:00:03.395Z,3.73
2023-01-26T23:05:08.405Z,3.50
2023-01-26T23:10:10.414Z,3.60
2023-01-26T23:15:17.250Z,3.83
2023-01-26T23:20:25.996Z,3.30
2023-01-26T23:25:47.253Z,3.27
2023-01-26T23:30:52.311Z,3.33
2023-01-26T23:35:56.971Z,4.13
2023-01-26T23:41:00.441Z,3.50
2023-01-26T23:46:04.951Z,3.27
2023-01-26T23:51:12.815Z,3.13
2023-01-26T23:56:21.841Z,2.57
